Time;durP1;ratioP1;P1;durP2;ratioP2;P2;SDS_P1;SDS_P2;PMS_P1;PMS_P2;Temp;Humidity;BMP_temperature;BMP_pressure;BME280_temperature;BME280_humidity;BME280_pressure;Samples;Min_cycle;Max_cycle;Signal;HPM_P1;HPM_P2
2021/01/25 00:02:20;;;;;;;9.50;6.20;;;;;;;5.98;96.53;99208.95;1780051;80;21150;-49
2021/01/25 00:04:48;;;;;;;9.08;6.45;;;;;;;5.98;96.63;99209.80;1778021;79;21122;-48
2021/01/25 00:07:16;;;;;;;11.53;7.03;;;;;;;5.99;96.58;99212.78;1777239;80;21272;-49
2021/01/25 00:09:44;;;;;;;12.73;6.65;;;;;;;5.99;96.57;99212.78;1779962;80;21643;-49
2021/01/25 00:12:12;;;;;;;10.93;6.83;;;;;;;5.99;96.51;99218.03;1782112;80;21146;-49
2021/01/25 00:14:39;;;;;;;10.15;6.45;;;;;;;5.99;96.57;99221.98;1778714;80;21130;-49
2021/01/25 00:17:07;;;;;;;9.25;5.95;;;;;;;6.00;96.55;99217.11;1782062;80;21578;-49
2021/01/25 00:19:37;;;;;;;11.63;6.90;;;;;;;6.00;96.53;99217.53;1778017;80;21081;-49
2021/01/25 00:22:05;;;;;;;12.90;6.53;;;;;;;5.98;96.53;99224.71;1778014;79;21158;-49
2021/01/25 00:24:33;;;;;;;10.50;6.95;;;;;;;6.00;96.65;99230.67;1782325;79;21610;-49
2021/01/25 00:27:01;;;;;;;11.60;6.62;;;;;;;6.02;96.67;99223.06;1780016;79;21906;-49
2021/01/25 00:29:28;;;;;;;12.78;7.17;;;;;;;6.02;96.54;99220.44;1781166;80;21598;-48
2021/01/25 00:31:58;;;;;;;13.38;7.35;;;;;;;6.02;96.49;99223.06;1777532;80;22774;-48
2021/01/25 00:34:26;;;;;;;13.00;7.90;;;;;;;6.04;96.52;99219.84;1782408;80;21828;-48
2021/01/25 00:36:54;;;;;;;11.68;7.25;;;;;;;6.08;96.48;99216.46;1780781;79;21141;-49
2021/01/25 00:39:21;;;;;;;11.78;6.85;;;;;;;6.10;96.41;99219.80;1781255;80;21142;-49
2021/01/25 00:41:49;;;;;;;13.22;7.37;;;;;;;6.14;96.38;99215.95;1779829;80;21141;-48
2021/01/25 00:44:16;;;;;;;12.43;7.55;;;;;;;6.18;96.20;99215.23;1777797;80;22767;-49
2021/01/25 00:46:45;;;;;;;9.35;6.28;;;;;;;6.22;96.15;99206.14;1749449;80;21154;-49
2021/01/25 00:49:13;;;;;;;13.18;7.12;;;;;;;6.25;96.03;99209.83;1745285;80;21131;-49
2021/01/25 00:51:42;;;;;;;9.88;6.35;;;;;;;6.29;95.99;99209.92;1797345;78;21125;-48
2021/01/25 00:54:10;;;;;;;10.75;6.55;;;;;;;6.34;95.98;99209.06;1771956;78;21142;-49
2021/01/25 00:56:37;;;;;;;11.33;6.42;;;;;;;6.40;95.82;99206.84;1783183;78;21366;-49
2021/01/25 00:59:05;;;;;;;8.88;6.30;;;;;;;6.45;95.65;99203.35;1793843;78;21132;-49
2021/01/25 01:01:34;;;;;;;12.63;7.53;;;;;;;6.47;95.44;99199.65;1749707;80;22080;-49
2021/01/25 01:04:01;;;;;;;12.25;7.20;;;;;;;6.46;95.10;99198.45;1774629;79;21113;-49
2021/01/25 01:06:29;;;;;;;15.53;7.83;;;;;;;6.44;94.83;99197.28;1799910;78;22055;-49
2021/01/25 01:08:57;;;;;;;9.43;7.37;;;;;;;6.41;94.44;99192.27;1799098;77;21759;-48
2021/01/25 01:11:25;;;;;;;12.03;7.35;;;;;;;6.37;94.22;99188.70;1772511;80;21135;-49
2021/01/25 01:13:53;;;;;;;10.40;7.28;;;;;;;6.33;94.21;99187.68;1784886;78;21157;-49
2021/01/25 01:16:21;;;;;;;12.25;7.33;;;;;;;6.32;94.18;99180.76;1791926;78;21137;-49
2021/01/25 01:18:48;;;;;;;11.68;7.87;;;;;;;6.33;94.28;99185.05;1772151;80;21133;-49
2021/01/25 01:21:16;;;;;;;13.00;8.25;;;;;;;6.37;94.39;99184.77;1772839;80;21383;-49
2021/01/25 01:23:44;;;;;;;11.80;7.95;;;;;;;6.38;94.28;99175.91;1776418;79;21125;-48
2021/01/25 01:26:12;;;;;;;15.15;9.15;;;;;;;6.39;94.20;99177.11;1782517;79;21135;-48
2021/01/25 01:28:40;;;;;;;13.10;7.75;;;;;;;6.40;94.09;99175.30;1789784;78;21999;-48
2021/01/25 01:31:07;;;;;;;11.60;7.10;;;;;;;6.39;94.01;99179.74;1790798;78;21957;-48
2021/01/25 01:33:35;;;;;;;11.53;7.92;;;;;;;6.37;93.81;99175.56;1787286;79;22053;-48
2021/01/25 01:36:04;;;;;;;13.28;7.87;;;;;;;6.31;93.85;99179.55;1788054;78;21149;-48
2021/01/25 01:38:32;;;;;;;12.98;7.75;;;;;;;6.29;93.90;99180.16;1752324;80;22023;-49
2021/01/25 01:41:00;;;;;;;13.22;8.03;;;;;;;6.24;93.89;99177.94;1794254;78;22011;-48
2021/01/25 01:43:28;;;;;;;10.72;6.95;;;;;;;6.23;94.02;99172.80;1790462;78;21110;-48
2021/01/25 01:45:56;;;;;;;10.43;7.25;;;;;;;6.22;94.03;99173.75;1771640;78;21191;-49
2021/01/25 01:48:25;;;;;;;11.03;6.97;;;;;;;6.22;94.12;99177.70;1775449;79;21172;-51
2021/01/25 01:50:53;;;;;;;9.05;6.12;;;;;;;6.20;93.96;99179.16;1781620;78;22012;-47
2021/01/25 01:53:20;;;;;;;11.90;6.17;;;;;;;6.17;93.93;99183.34;1760754;78;21145;-47
2021/01/25 01:55:48;;;;;;;10.23;6.85;;;;;;;6.14;94.08;99186.23;1792035;78;21110;-48
2021/01/25 01:58:16;;;;;;;12.88;7.15;;;;;;;6.11;94.19;99180.73;1777296;79;21889;-47
2021/01/25 02:00:45;;;;;;;9.35;6.05;;;;;;;6.10;94.44;99181.70;1787866;78;21043;-48
2021/01/25 02:03:12;;;;;;;12.35;7.53;;;;;;;6.10;94.61;99176.94;1793703;78;21610;-48
2021/01/25 02:05:41;;;;;;;11.85;7.53;;;;;;;6.09;94.53;99172.64;1788776;78;21098;-48
2021/01/25 02:08:08;;;;;;;11.78;8.05;;;;;;;6.07;94.57;99171.94;1773458;78;21146;-48
2021/01/25 02:10:37;;;;;;;15.10;9.33;;;;;;;6.05;94.61;99174.67;1742093;79;21602;-48
2021/01/25 02:13:04;;;;;;;18.52;10.90;;;;;;;6.02;94.54;99175.78;1764560;79;22241;-48
2021/01/25 02:15:33;;;;;;;21.48;11.80;;;;;;;6.02;94.66;99180.19;1792721;78;21134;-48
2021/01/25 02:18:00;;;;;;;22.50;14.53;;;;;;;5.99;94.62;99179.94;1794216;78;21003;-48
2021/01/25 02:20:43;;;;;;;20.82;12.68;;;;;;;5.94;94.47;99176.02;1761306;78;21129;-48
2021/01/25 02:23:54;;;;;;;18.17;12.60;;;;;;;5.85;94.39;99180.25;1773921;78;21362;-48
2021/01/25 02:26:43;;;;;;;22.85;14.23;;;;;;;5.75;94.48;99187.56;1798254;78;21741;-48
2021/01/25 02:29:11;;;;;;;17.75;12.63;;;;;;;5.64;94.49;99190.72;1800151;77;21131;-49
2021/01/25 02:31:40;;;;;;;18.23;13.20;;;;;;;5.54;94.64;99187.98;1777733;80;21133;-49
2021/01/25 02:34:08;;;;;;;21.57;13.40;;;;;;;5.47;94.78;99192.41;1779253;78;21141;-49
2021/01/25 02:36:37;;;;;;;18.62;12.68;;;;;;;5.40;94.85;99187.30;1769980;79;21372;-49
2021/01/25 02:39:05;;;;;;;16.17;11.55;;;;;;;5.35;94.97;99193.39;1794399;78;21117;-49
2021/01/25 02:41:33;;;;;;;14.75;10.48;;;;;;;5.27;95.05;99191.89;1793972;78;21156;-49
2021/01/25 02:44:02;;;;;;;16.02;10.72;;;;;;;5.18;95.25;99190.81;1772606;78;22134;-49
2021/01/25 02:46:30;;;;;;;14.58;9.80;;;;;;;5.15;95.52;99192.37;1805669;78;22126;-48
2021/01/25 02:48:58;;;;;;;15.50;11.10;;;;;;;5.14;95.70;99195.48;1768583;78;21258;-48
2021/01/25 02:51:25;;;;;;;15.32;10.10;;;;;;;5.13;95.84;99200.84;1795052;78;21149;-48
2021/01/25 02:53:53;;;;;;;17.15;10.68;;;;;;;5.10;95.97;99194.52;1758611;80;21214;-48
2021/01/25 02:56:21;;;;;;;16.40;11.08;;;;;;;5.06;96.09;99197.88;1765514;79;21120;-48
2021/01/25 02:58:49;;;;;;;14.50;10.05;;;;;;;5.03;96.29;99196.80;1767387;80;21955;-48
2021/01/25 03:01:17;;;;;;;16.23;10.95;;;;;;;5.02;96.43;99196.45;1767876;79;22038;-48
2021/01/25 03:03:45;;;;;;;18.45;11.22;;;;;;;4.99;96.56;99190.95;1773033;79;21616;-49
2021/01/25 03:06:12;;;;;;;15.53;10.08;;;;;;;4.96;96.65;99200.86;1772580;79;20983;-48
2021/01/25 03:08:40;;;;;;;15.18;10.13;;;;;;;4.91;96.76;99202.52;1770109;79;21128;-48
2021/01/25 03:11:08;;;;;;;17.23;11.35;;;;;;;4.87;96.99;99208.48;1767383;79;21133;-48
2021/01/25 03:13:36;;;;;;;18.60;11.43;;;;;;;4.86;97.24;99202.03;1793332;78;21153;-48
2021/01/25 03:16:05;;;;;;;17.48;11.10;;;;;;;4.86;97.42;99210.75;1794694;78;22156;-48
2021/01/25 03:18:34;;;;;;;19.55;11.73;;;;;;;4.84;97.56;99212.66;1770789;78;21125;-49
2021/01/25 03:21:02;;;;;;;18.60;12.70;;;;;;;4.83;97.68;99208.83;1776427;80;21114;-49
2021/01/25 03:23:29;;;;;;;18.50;12.43;;;;;;;4.79;97.86;99199.07;1764309;80;21138;-49
2021/01/25 03:25:57;;;;;;;15.90;10.63;;;;;;;4.78;97.92;99203.95;1766763;79;22749;-49
2021/01/25 03:28:25;;;;;;;17.52;12.35;;;;;;;4.77;98.03;99197.53;1763710;79;21007;-49
2021/01/25 03:30:53;;;;;;;19.12;11.93;;;;;;;4.76;98.15;99195.38;1770467;79;21120;-48
2021/01/25 03:33:20;;;;;;;19.10;11.57;;;;;;;4.77;98.27;99198.84;1799373;78;21121;-49
2021/01/25 03:35:48;;;;;;;21.15;10.68;;;;;;;4.78;98.39;99196.09;1769405;80;21133;-49
2021/01/25 03:38:15;;;;;;;19.52;12.85;;;;;;;4.79;98.44;99185.96;1765542;80;22775;-49
2021/01/25 03:40:43;;;;;;;22.27;13.43;;;;;;;4.83;98.52;99190.02;1784999;79;21122;-49
2021/01/25 03:43:13;;;;;;;18.90;11.88;;;;;;;4.86;98.59;99187.61;1776408;79;21124;-48
2021/01/25 03:45:41;;;;;;;20.43;12.50;;;;;;;4.90;98.63;99188.23;1766212;79;21110;-48
2021/01/25 03:48:09;;;;;;;21.85;13.98;;;;;;;4.94;98.66;99189.66;1779715;78;21117;-50
2021/01/25 03:50:38;;;;;;;26.20;14.43;;;;;;;4.98;98.72;99187.97;1773287;79;22059;-50
2021/01/25 03:53:05;;;;;;;24.95;14.07;;;;;;;5.02;98.76;99182.84;1777339;78;22142;-49
2021/01/25 03:55:33;;;;;;;26.42;14.58;;;;;;;5.05;98.71;99180.47;1790637;78;21149;-49
2021/01/25 03:58:01;;;;;;;26.87;15.80;;;;;;;5.06;98.62;99172.95;1791152;78;21121;-48
2021/01/25 04:00:29;;;;;;;23.62;14.07;;;;;;;5.05;98.58;99158.17;1774414;78;21145;-48
2021/01/25 04:02:56;;;;;;;24.12;14.00;;;;;;;5.08;98.65;99161.87;1795334;78;21175;-48
2021/01/25 04:05:24;;;;;;;31.40;16.05;;;;;;;5.10;98.65;99159.95;1790038;78;22214;-48
2021/01/25 04:07:52;;;;;;;25.72;15.08;;;;;;;5.12;98.64;99159.82;1795608;78;21126;-48
2021/01/25 04:10:20;;;;;;;28.00;16.10;;;;;;;5.13;98.64;99154.93;1797647;78;22060;-49
2021/01/25 04:12:47;;;;;;;28.35;16.20;;;;;;;5.12;98.60;99156.73;1786423;78;21138;-49
2021/01/25 04:15:15;;;;;;;26.02;15.35;;;;;;;5.12;98.58;99155.42;1767492;78;21189;-49
2021/01/25 04:17:43;;;;;;;24.70;14.68;;;;;;;5.11;98.54;99148.51;1786591;78;21170;-49
2021/01/25 04:20:12;;;;;;;26.33;14.70;;;;;;;5.12;98.52;99155.42;1799039;78;21132;-49
2021/01/25 04:22:39;;;;;;;21.90;13.00;;;;;;;5.11;98.42;99148.51;1794607;78;21122;-48
2021/01/25 04:25:08;;;;;;;27.48;15.05;;;;;;;5.09;98.29;99160.91;1794476;78;21949;-49
2021/01/25 04:27:36;;;;;;;21.20;12.30;;;;;;;5.07;98.31;99157.58;1789744;78;21368;-48
2021/01/25 04:30:09;;;;;;;20.10;12.90;;;;;;;5.08;98.35;99162.33;1789487;78;21169;-48
2021/01/25 04:32:39;;;;;;;23.15;13.15;;;;;;;5.08;98.33;99162.33;1791540;78;21010;-48
2021/01/25 04:35:12;;;;;;;18.37;11.30;;;;;;;5.09;98.29;99165.31;1793270;78;21173;-49
2021/01/25 04:37:40;;;;;;;19.73;11.93;;;;;;;5.08;98.18;99157.94;1795731;78;21109;-48
2021/01/25 04:40:09;;;;;;;24.40;13.18;;;;;;;5.06;98.14;99151.12;1795566;78;21178;-50
2021/01/25 04:42:39;;;;;;;22.37;13.35;;;;;;;5.02;98.02;99150.55;1787991;78;21153;-49
2021/01/25 04:45:10;;;;;;;19.57;12.73;;;;;;;4.98;98.06;99151.75;1770563;78;21121;-49
2021/01/25 04:47:44;;;;;;;20.55;12.53;;;;;;;4.97;98.13;99157.95;1791831;78;21111;-49
2021/01/25 04:50:12;;;;;;;20.27;12.98;;;;;;;4.96;98.15;99151.03;1794306;78;21107;-48
2021/01/25 04:52:42;;;;;;;23.12;15.38;;;;;;;4.99;98.20;99153.41;1752984;79;22903;-49
2021/01/25 04:55:10;;;;;;;26.12;15.38;;;;;;;4.96;97.97;99154.47;1763900;80;21125;-49
2021/01/25 04:57:38;;;;;;;23.80;14.73;;;;;;;4.91;97.81;99157.12;1771588;80;21959;-49
2021/01/25 05:00:08;;;;;;;27.32;16.82;;;;;;;4.86;97.82;99164.02;1773986;78;21114;-49
2021/01/25 05:02:41;;;;;;;26.30;16.40;;;;;;;4.82;97.77;99149.02;1796264;78;21502;-49
2021/01/25 05:05:10;;;;;;;24.70;16.20;;;;;;;4.80;97.77;99149.61;1773839;78;21377;-48
2021/01/25 05:07:37;;;;;;;24.15;15.30;;;;;;;4.77;97.71;99151.16;1780905;78;21124;-48
2021/01/25 05:10:06;;;;;;;27.45;15.65;;;;;;;4.69;97.61;99148.30;1781583;78;21157;-48
2021/01/25 05:12:45;;;;;;;24.40;14.98;;;;;;;4.66;97.73;99152.47;1789459;78;21136;-48
2021/01/25 05:15:27;;;;;;;23.57;13.83;;;;;;;4.63;97.86;99153.56;1793198;78;21976;-48
2021/01/25 05:17:59;;;;;;;;;;;;;;;4.63;97.99;99160.58;1794983;78;21186;-48
2021/01/25 05:20:31;;;;;;;25.60;14.65;;;;;;;4.64;98.08;99155.69;1766186;80;21112;-49
2021/01/25 05:23:00;;;;;;;21.95;12.85;;;;;;;4.60;98.14;99151.17;1767598;79;21135;-48
2021/01/25 05:25:35;;;;;;;24.10;13.13;;;;;;;4.60;98.20;99155.56;1757510;78;21965;-49
2021/01/25 05:28:18;;;;;;;24.35;13.50;;;;;;;4.61;98.27;99155.92;1784225;79;21993;-49
2021/01/25 05:30:46;;;;;;;23.32;14.78;;;;;;;4.64;98.34;99150.45;1777310;79;21751;-49
2021/01/25 05:33:25;;;;;;;21.20;12.13;;;;;;;4.66;98.27;99161.65;1782058;79;21146;-49
2021/01/25 05:35:55;;;;;;;24.47;13.45;;;;;;;4.67;98.27;99168.09;1773834;79;21018;-49
2021/01/25 05:38:23;;;;;;;22.50;13.62;;;;;;;4.71;98.37;99171.30;1774440;79;21133;-48
2021/01/25 05:40:56;;;;;;;22.93;13.70;;;;;;;4.74;98.41;99175.00;1781537;79;21120;-48
2021/01/25 05:43:32;;;;;;;24.43;14.15;;;;;;;4.82;98.55;99177.01;1778426;79;21277;-48
2021/01/25 05:46:10;;;;;;;24.05;14.25;;;;;;;4.91;98.71;99184.66;1794816;78;21160;-49
2021/01/25 05:48:38;;;;;;;23.20;14.00;;;;;;;5.00;98.77;99173.44;1781530;78;20983;-49
2021/01/25 05:51:16;;;;;;;24.95;12.78;;;;;;;5.08;98.70;99180.69;1763740;78;21124;-49
2021/01/25 05:53:46;;;;;;;23.38;11.78;;;;;;;5.14;98.62;99189.39;1801302;78;21101;-49
2021/01/25 05:56:16;;;;;;;22.52;12.03;;;;;;;5.19;98.40;99179.86;1797904;78;21251;-49
2021/01/25 05:58:44;;;;;;;25.90;15.15;;;;;;;5.22;98.18;99176.50;1793709;78;21025;-49
2021/01/25 06:01:11;;;;;;;26.37;14.33;;;;;;;5.24;97.79;99179.02;1805080;78;21211;-49
2021/01/25 06:03:39;;;;;;;25.05;13.83;;;;;;;5.25;97.43;99173.62;1740628;80;21141;-49
2021/01/25 06:06:10;;;;;;;23.95;13.35;;;;;;;5.28;97.07;99180.44;1777947;80;21691;-49
2021/01/25 06:08:56;;;;;;;18.90;10.25;;;;;;;5.30;96.56;99183.78;1757241;80;21383;-49
2021/01/25 06:11:30;;;;;;;15.60;9.38;;;;;;;5.30;96.01;99174.59;1767381;79;21129;-49
2021/01/25 06:14:12;;;;;;;15.93;9.80;;;;;;;5.27;95.45;99179.59;1786998;79;21010;-49
2021/01/25 06:16:39;;;;;;;13.27;9.07;;;;;;;5.24;95.11;99180.33;1778163;79;21141;-49
2021/01/25 06:19:08;;;;;;;14.00;9.38;;;;;;;5.22;95.22;99186.17;1751775;79;22044;-49
2021/01/25 06:21:40;;;;;;;12.40;8.73;;;;;;;5.24;95.12;99196.07;1778714;79;21362;-49
2021/01/25 06:24:09;;;;;;;14.65;9.83;;;;;;;5.22;94.95;99179.62;1755531;79;21149;-48
2021/01/25 06:26:38;;;;;;;14.85;8.98;;;;;;;5.22;94.90;99173.88;1781369;79;21148;-48
2021/01/25 06:29:07;;;;;;;14.10;8.68;;;;;;;5.20;94.72;99159.23;1749289;79;21148;-48
2021/01/25 06:31:39;;;;;;;12.37;8.38;;;;;;;5.16;94.57;99152.06;1755802;79;21149;-48
2021/01/25 06:34:10;;;;;;;11.83;8.13;;;;;;;5.12;94.61;99149.33;1778962;79;21160;-49
2021/01/25 06:36:41;;;;;;;10.43;7.57;;;;;;;5.10;94.60;99160.42;1774078;79;21976;-49
2021/01/25 06:39:09;;;;;;;11.60;7.15;;;;;;;5.07;94.63;99162.82;1790529;79;22111;-49
2021/01/25 06:41:38;;;;;;;11.85;7.47;;;;;;;5.09;94.69;99162.22;1789444;79;21148;-49
2021/01/25 06:44:08;;;;;;;15.68;8.33;;;;;;;5.12;94.56;99158.51;1787162;79;21139;-48
2021/01/25 06:46:37;;;;;;;12.88;7.50;;;;;;;5.12;94.31;99148.86;1786920;79;21400;-49
2021/01/25 06:49:07;;;;;;;14.40;7.90;;;;;;;5.12;94.14;99150.64;1789172;79;21625;-48
2021/01/25 06:51:43;;;;;;;11.40;7.53;;;;;;;5.11;94.08;99159.46;1780966;79;21165;-48
2021/01/25 06:54:14;;;;;;;12.03;7.97;;;;;;;5.10;94.08;99166.98;1780379;79;21133;-48
2021/01/25 06:56:51;;;;;;;12.25;7.67;;;;;;;5.12;94.10;99171.63;1725575;78;21104;-49
2021/01/25 06:59:22;;;;;;;12.25;7.72;;;;;;;5.15;94.03;99158.27;1773277;80;23035;-49
2021/01/25 07:01:54;;;;;;;11.53;8.13;;;;;;;5.19;93.94;99162.31;1799919;78;22413;-49
2021/01/25 07:04:25;;;;;;;12.82;8.53;;;;;;;5.19;93.75;99181.17;1804269;78;21804;-49
2021/01/25 07:06:54;;;;;;;11.88;7.65;;;;;;;5.16;93.55;99181.77;1808858;77;21130;-48
2021/01/25 07:09:28;;;;;;;11.80;7.72;;;;;;;5.15;93.51;99168.30;1775787;78;22022;-48
2021/01/25 07:12:01;;;;;;;12.07;6.87;;;;;;;5.16;93.28;99159.47;1768302;80;22092;-48
2021/01/25 07:14:30;;;;;;;10.55;6.87;;;;;;;5.15;92.91;99163.05;1778639;78;21146;-48
2021/01/25 07:16:59;;;;;;;10.80;7.05;;;;;;;5.14;92.80;99154.82;1778906;78;21570;-49
2021/01/25 07:19:28;;;;;;;11.95;7.97;;;;;;;5.13;92.39;99158.41;1769347;79;21132;-49
2021/01/25 07:21:55;;;;;;;11.80;7.58;;;;;;;5.12;92.04;99168.53;1765993;80;21149;-49
2021/01/25 07:24:27;;;;;;;10.90;7.25;;;;;;;5.13;92.11;99161.03;1776877;78;22146;-48
2021/01/25 07:26:58;;;;;;;11.55;7.30;;;;;;;5.12;91.91;99161.98;1775460;78;21163;-49
2021/01/25 07:29:26;;;;;;;13.95;7.60;;;;;;;5.10;91.87;99169.14;1800225;78;21000;-49
2021/01/25 07:31:55;;;;;;;11.73;7.53;;;;;;;5.09;91.77;99159.59;1801514;78;21110;-49
2021/01/25 07:34:24;;;;;;;11.00;7.72;;;;;;;5.09;91.81;99159.59;1793892;78;21422;-49
2021/01/25 07:36:51;;;;;;;12.40;8.08;;;;;;;5.11;91.80;99168.64;1800122;78;22896;-49
2021/01/25 07:39:21;;;;;;;14.50;8.48;;;;;;;5.12;91.77;99169.85;1803874;78;21328;-50
2021/01/25 07:41:49;;;;;;;12.28;8.20;;;;;;;5.13;91.64;99149.68;1798600;78;21987;-49
2021/01/25 07:44:17;;;;;;;16.25;8.78;;;;;;;5.14;91.68;99148.27;1800881;78;21154;-48
2021/01/25 07:46:46;;;;;;;15.60;9.58;;;;;;;5.14;91.49;99155.28;1783038;78;21132;-49
2021/01/25 07:49:14;;;;;;;13.58;8.50;;;;;;;5.14;91.42;99145.64;1772826;80;21199;-49
2021/01/25 07:51:43;;;;;;;14.30;8.83;;;;;;;5.13;91.36;99136.10;1774720;80;21125;-49
2021/01/25 07:54:15;;;;;;;14.35;9.15;;;;;;;5.15;91.32;99151.70;1782719;79;21127;-48
2021/01/25 07:56:43;;;;;;;13.20;8.93;;;;;;;5.15;91.26;99155.64;1778718;79;21840;-49
2021/01/25 07:59:16;;;;;;;16.52;9.30;;;;;;;5.15;91.29;99151.24;1776419;79;21820;-48
2021/01/25 08:01:49;;;;;;;13.50;9.13;;;;;;;5.18;91.30;99143.59;1783047;79;22816;-48
2021/01/25 08:04:21;;;;;;;13.70;8.35;;;;;;;5.22;91.19;99146.33;1779959;79;21044;-48
2021/01/25 08:06:48;;;;;;;14.85;8.88;;;;;;;5.24;91.21;99141.79;1777843;79;29287;-49
2021/01/25 08:09:20;;;;;;;13.62;8.15;;;;;;;5.26;91.21;99138.56;1782155;79;21936;-48
2021/01/25 08:11:47;;;;;;;16.50;8.90;;;;;;;5.29;91.08;99130.94;1751290;79;21133;-48
2021/01/25 08:14:22;;;;;;;12.80;9.00;;;;;;;5.30;90.70;99136.55;1776201;79;21284;-48
2021/01/25 08:16:58;;;;;;;12.35;8.73;;;;;;;5.30;90.78;99132.61;1776760;79;20995;-49
2021/01/25 08:19:35;;;;;;;13.18;8.38;;;;;;;5.31;90.53;99132.93;1795439;78;20995;-48
2021/01/25 08:22:07;;;;;;;15.05;9.33;;;;;;;5.32;90.58;99141.16;1773717;80;21106;-48
2021/01/25 08:24:34;;;;;;;13.40;9.03;;;;;;;5.34;90.24;99151.55;1789816;78;21187;-48
2021/01/25 08:27:15;;;;;;;14.00;8.40;;;;;;;5.31;90.29;99152.61;1795566;78;21231;-48
2021/01/25 08:29:43;;;;;;;16.32;9.05;;;;;;;5.29;90.34;99141.44;1780058;78;21251;-49
2021/01/25 08:32:23;;;;;;;12.90;8.53;;;;;;;5.24;90.20;99131.79;1763561;80;21109;-49
2021/01/25 08:35:05;;;;;;;13.65;9.50;;;;;;;5.24;90.31;99135.72;1769422;78;21556;-49
2021/01/25 08:37:34;;;;;;;15.25;10.40;;;;;;;5.23;90.52;99117.00;1771807;80;21133;-49
2021/01/25 08:40:13;;;;;;;13.35;9.85;;;;;;;5.25;90.39;99121.65;1769552;80;21507;-49
2021/01/25 08:42:41;;;;;;;15.40;10.03;;;;;;;5.26;90.30;99116.27;1777002;79;22307;-48
2021/01/25 08:45:14;;;;;;;14.68;10.40;;;;;;;5.27;90.54;99131.05;1782207;79;22048;-48
2021/01/25 08:47:42;;;;;;;17.30;11.05;;;;;;;5.28;90.54;99127.96;1767327;80;21392;-49
2021/01/25 08:50:19;;;;;;;15.55;10.38;;;;;;;5.28;90.36;99123.53;1775221;78;21117;-49
2021/01/25 08:53:02;;;;;;;17.85;11.38;;;;;;;5.29;90.57;99119.95;1777801;79;21189;-49
2021/01/25 08:55:47;;;;;;;17.07;11.40;;;;;;;5.28;90.52;99122.72;1808748;78;20990;-49
2021/01/25 08:58:24;;;;;;;16.85;11.60;;;;;;;5.29;90.70;99098.14;1775816;79;21527;-49
2021/01/25 09:00:52;;;;;;;15.85;11.10;;;;;;;5.31;90.58;99097.05;1802075;78;21500;-48
2021/01/25 09:03:20;;;;;;;19.10;11.53;;;;;;;5.34;90.50;99099.06;1776387;78;21106;-49
2021/01/25 09:05:50;;;;;;;19.17;11.70;;;;;;;5.35;90.07;99093.67;1802114;78;21202;-49
2021/01/25 09:08:18;;;;;;;18.17;11.95;;;;;;;5.35;90.02;99087.61;1773515;78;21137;-49
2021/01/25 09:10:48;;;;;;;21.68;12.85;;;;;;;5.36;90.19;99083.53;1770132;78;21946;-49
2021/01/25 09:13:15;;;;;;;20.92;12.63;;;;;;;5.38;90.33;99079.48;1769055;80;21141;-49
2021/01/25 09:15:45;;;;;;;18.42;11.95;;;;;;;5.38;90.16;99078.99;1778672;78;21156;-49
2021/01/25 09:18:13;;;;;;;19.35;12.03;;;;;;;5.39;90.30;99078.53;1768729;80;21996;-49
2021/01/25 09:20:40;;;;;;;21.10;12.05;;;;;;;5.40;90.29;99088.89;1802502;78;22178;-49
2021/01/25 09:23:08;;;;;;;21.27;12.40;;;;;;;5.36;90.46;99091.41;1805508;78;21117;-49
2021/01/25 09:25:36;;;;;;;20.32;13.03;;;;;;;5.36;90.55;99090.59;1804776;78;22084;-47
2021/01/25 09:28:04;;;;;;;20.35;12.60;;;;;;;5.35;90.73;99082.36;1768042;79;21712;-49
2021/01/25 09:30:31;;;;;;;19.25;12.35;;;;;;;5.38;90.87;99083.42;1777010;79;21397;-49
2021/01/25 09:32:59;;;;;;;20.70;13.45;;;;;;;5.40;90.82;99070.52;1768798;79;21157;-49
2021/01/25 09:35:27;;;;;;;21.50;13.00;;;;;;;5.42;90.79;99064.66;1774456;79;21166;-49
2021/01/25 09:37:55;;;;;;;23.07;14.10;;;;;;;5.42;90.73;99053.34;1782522;78;21951;-48
2021/01/25 09:40:22;;;;;;;24.95;15.23;;;;;;;5.42;90.85;99055.48;1804117;78;21916;-48
2021/01/25 09:42:50;;;;;;;20.95;13.78;;;;;;;5.43;90.77;99053.70;1800131;78;22817;-49
2021/01/25 09:45:18;;;;;;;22.45;14.33;;;;;;;5.43;90.88;99054.52;1800200;78;21851;-49
2021/01/25 09:47:46;;;;;;;26.10;14.10;;;;;;;5.44;90.97;99044.87;1800459;78;21617;-49
2021/01/25 09:50:15;;;;;;;26.68;14.38;;;;;;;5.42;90.99;99042.84;1773294;78;21152;-48
2021/01/25 09:52:44;;;;;;;23.35;15.18;;;;;;;5.38;91.22;99030.44;1809051;78;21093;-48
2021/01/25 09:55:13;;;;;;;25.88;15.00;;;;;;;5.37;91.41;99037.15;1806689;78;22172;-49
2021/01/25 09:57:41;;;;;;;26.20;16.12;;;;;;;5.35;91.63;99035.95;1801639;78;21976;-48
2021/01/25 10:00:10;;;;;;;21.87;12.88;;;;;;;5.32;91.82;99040.13;1782010;79;21120;-48
2021/01/25 10:02:39;;;;;;;25.55;15.63;;;;;;;5.34;91.86;99028.22;1777933;79;21108;-49
2021/01/25 10:05:08;;;;;;;25.60;15.63;;;;;;;5.35;92.02;99030.70;1784613;79;21223;-49
2021/01/25 10:07:37;;;;;;;23.22;13.93;;;;;;;5.39;91.92;99031.30;1780872;79;22750;-49
2021/01/25 10:10:10;;;;;;;26.55;13.78;;;;;;;5.41;91.93;99017.06;1784846;79;21160;-48
2021/01/25 10:12:38;;;;;;;25.02;15.13;;;;;;;5.44;91.56;99011.56;1799154;78;20987;-49
2021/01/25 10:15:12;;;;;;;26.00;13.98;;;;;;;5.46;91.42;99007.02;1784085;78;21114;-49
2021/01/25 10:17:41;;;;;;;25.97;15.40;;;;;;;5.46;91.37;99008.83;1761832;79;21590;-48
2021/01/25 10:20:09;;;;;;;27.60;16.15;;;;;;;5.43;91.39;98987.59;1789805;78;21392;-49
2021/01/25 10:22:37;;;;;;;26.57;15.20;;;;;;;5.43;91.66;98987.59;1780423;78;21676;-48
2021/01/25 10:25:07;;;;;;;30.20;17.15;;;;;;;5.41;91.62;98979.02;1796686;78;21149;-49
2021/01/25 10:27:36;;;;;;;32.48;17.57;;;;;;;5.38;91.78;98976.64;1795767;78;21120;-48
2021/01/25 10:30:08;;;;;;;30.00;17.90;;;;;;;5.37;91.80;98971.55;1796414;78;21099;-48
2021/01/25 10:32:36;;;;;;;;;;;;;;;5.35;91.86;98969.03;1801161;78;21439;-48
2021/01/25 10:35:08;;;;;;;31.23;17.62;;;;;;;5.30;91.99;98973.36;1807314;78;20622;-49
2021/01/25 10:37:37;;;;;;;30.17;17.70;;;;;;;5.27;92.18;98962.30;1767514;78;21150;-48
2021/01/25 10:40:05;;;;;;;29.90;16.90;;;;;;;5.27;92.35;98959.19;1764853;79;21566;-48
2021/01/25 10:42:33;;;;;;;31.00;18.45;;;;;;;5.28;92.29;98956.10;1781459;79;21153;-48
2021/01/25 10:45:01;;;;;;;35.43;17.85;;;;;;;5.27;92.20;98953.94;1769817;78;21638;-48
2021/01/25 10:47:28;;;;;;;34.40;18.80;;;;;;;5.23;92.16;98939.41;1790297;78;21501;-49
2021/01/25 10:49:56;;;;;;;28.42;16.02;;;;;;;5.19;92.22;98941.13;1781424;78;22189;-48
2021/01/25 10:52:24;;;;;;;33.00;16.93;;;;;;;5.19;92.46;98933.25;1802160;78;21153;-48
2021/01/25 10:54:51;;;;;;;30.02;16.95;;;;;;;5.16;92.55;98942.19;1783325;78;21133;-48
2021/01/25 10:57:19;;;;;;;32.25;16.62;;;;;;;5.15;92.68;98932.66;1805363;78;21305;-49
2021/01/25 10:59:48;;;;;;;28.92;17.77;;;;;;;5.13;92.83;98929.33;1777654;79;21157;-47
2021/01/25 11:02:18;;;;;;;31.02;15.63;;;;;;;5.10;93.00;98919.09;1774292;78;20990;-48
2021/01/25 11:04:46;;;;;;;28.52;15.00;;;;;;;5.10;93.18;98927.81;1777822;79;21149;-47
2021/01/25 11:07:13;;;;;;;31.20;16.73;;;;;;;5.10;93.23;98908.60;1769398;79;21122;-49
2021/01/25 11:09:41;;;;;;;31.52;15.15;;;;;;;5.10;93.33;98909.45;1797171;78;21374;-49
2021/01/25 11:12:10;;;;;;;31.07;16.65;;;;;;;5.11;93.47;98911.58;1799315;78;20987;-49
2021/01/25 11:14:37;;;;;;;27.00;15.63;;;;;;;5.12;93.50;98899.66;1806831;78;21137;-49
2021/01/25 11:17:05;;;;;;;31.52;16.02;;;;;;;5.12;93.55;98891.80;1798526;78;21523;-49
2021/01/25 11:19:33;;;;;;;29.60;16.27;;;;;;;5.12;93.59;98877.36;1799596;78;21133;-49
2021/01/25 11:22:01;;;;;;;27.95;16.60;;;;;;;5.17;93.62;98890.08;1769371;78;21324;-49
2021/01/25 11:24:29;;;;;;;31.25;17.10;;;;;;;5.17;93.60;98892.23;1786412;78;21177;-49
2021/01/25 11:26:59;;;;;;;31.42;15.90;;;;;;;5.20;93.64;98882.45;1801162;78;20978;-49
2021/01/25 11:29:29;;;;;;;31.35;16.02;;;;;;;5.21;93.69;98873.62;1789945;78;21127;-49
2021/01/25 11:32:03;;;;;;;28.62;17.40;;;;;;;5.24;93.68;98881.23;1804059;78;21109;-48
2021/01/25 11:34:31;;;;;;;30.48;17.12;;;;;;;5.27;93.68;98862.61;1794201;78;21441;-49
2021/01/25 11:36:59;;;;;;;34.10;17.02;;;;;;;5.31;93.59;98858.73;1801085;78;21620;-48
2021/01/25 11:39:27;;;;;;;36.48;17.82;;;;;;;5.32;93.56;98835.47;1803491;78;22000;-49
2021/01/25 11:41:55;;;;;;;35.68;18.37;;;;;;;5.34;93.53;98836.16;1794693;78;21109;-49